sensor_id;sensor_type;location;lat;lon;timestamp;temperature;humidity
11387;DHT22;5748;53.102;8.456;2023-08-30T00:01:05;17.70;58.70
11387;DHT22;5748;53.102;8.456;2023-08-30T00:06:03;17.70;58.80
11387;DHT22;5748;53.102;8.456;2023-08-30T00:08:30;17.80;59.30
11387;DHT22;5748;53.102;8.456;2023-08-30T00:10:57;17.80;59.30
11387;DHT22;5748;53.102;8.456;2023-08-30T00:13:24;17.80;59.30
11387;DHT22;5748;53.102;8.456;2023-08-30T00:15:51;17.80;59.30
11387;DHT22;5748;53.102;8.456;2023-08-30T00:18:18;17.80;59.30
11387;DHT22;5748;53.102;8.456;2023-08-30T00:23:14;17.80;59.10
11387;DHT22;5748;53.102;8.456;2023-08-30T00:25:42;17.80;59.40
11387;DHT22;5748;53.102;8.456;2023-08-30T00:28:09;17.90;59.40
11387;DHT22;5748;53.102;8.456;2023-08-30T00:30:36;17.80;59.00
11387;DHT22;5748;53.102;8.456;2023-08-30T00:33:03;17.90;59.60
11387;DHT22;5748;53.102;8.456;2023-08-30T00:35:30;17.90;59.60
11387;DHT22;5748;53.102;8.456;2023-08-30T00:37:59;17.90;59.60
11387;DHT22;5748;53.102;8.456;2023-08-30T00:40:26;17.90;59.60
11387;DHT22;5748;53.102;8.456;2023-08-30T00:42:53;18.00;59.70
11387;DHT22;5748;53.102;8.456;2023-08-30T00:45:20;18.00;59.70
11387;DHT22;5748;53.102;8.456;2023-08-30T00:47:47;18.00;59.70
11387;DHT22;5748;53.102;8.456;2023-08-30T00:50:14;18.00;59.70
11387;DHT22;5748;53.102;8.456;2023-08-30T00:52:42;18.00;59.70
11387;DHT22;5748;53.102;8.456;2023-08-30T00:55:10;18.00;59.80
11387;DHT22;5748;53.102;8.456;2023-08-30T00:57:37;18.00;59.80
11387;DHT22;5748;53.102;8.456;2023-08-30T01:00:06;18.00;59.80
11387;DHT22;5748;53.102;8.456;2023-08-30T01:02:34;18.00;59.90
11387;DHT22;5748;53.102;8.456;2023-08-30T01:05:02;18.00;59.40
11387;DHT22;5748;53.102;8.456;2023-08-30T01:07:29;18.00;59.80
11387;DHT22;5748;53.102;8.456;2023-08-30T01:09:56;18.00;59.80
11387;DHT22;5748;53.102;8.456;2023-08-30T01:12:31;18.10;59.60
11387;DHT22;5748;53.102;8.456;2023-08-30T01:15:07;19.40;61.80
11387;DHT22;5748;53.102;8.456;2023-08-30T01:17:39;17.00;59.40
11387;DHT22;5748;53.102;8.456;2023-08-30T01:20:07;18.00;59.60
11387;DHT22;5748;53.102;8.456;2023-08-30T01:22:45;18.10;60.10
11387;DHT22;5748;53.102;8.456;2023-08-30T01:25:31;18.60;60.90
11387;DHT22;5748;53.102;8.456;2023-08-30T01:28:04;18.10;60.80
11387;DHT22;5748;53.102;8.456;2023-08-30T01:30:32;18.10;60.20
11387;DHT22;5748;53.102;8.456;2023-08-30T01:33:03;18.10;60.10
11387;DHT22;5748;53.102;8.456;2023-08-30T01:35:31;18.10;60.10
11387;DHT22;5748;53.102;8.456;2023-08-30T01:38:02;18.10;60.20
11387;DHT22;5748;53.102;8.456;2023-08-30T01:40:33;18.10;60.30
11387;DHT22;5748;53.102;8.456;2023-08-30T01:43:04;18.10;60.40
11387;DHT22;5748;53.102;8.456;2023-08-30T01:45:33;18.10;60.40
11387;DHT22;5748;53.102;8.456;2023-08-30T01:48:02;18.10;61.10
11387;DHT22;5748;53.102;8.456;2023-08-30T01:50:31;18.10;60.30
11387;DHT22;5748;53.102;8.456;2023-08-30T01:52:59;18.10;60.40
11387;DHT22;5748;53.102;8.456;2023-08-30T01:55:28;18.10;59.90
11387;DHT22;5748;53.102;8.456;2023-08-30T01:57:56;18.10;60.60
11387;DHT22;5748;53.102;8.456;2023-08-30T02:00:24;18.10;60.30
11387;DHT22;5748;53.102;8.456;2023-08-30T02:02:51;18.10;60.40
11387;DHT22;5748;53.102;8.456;2023-08-30T02:05:18;18.20;60.50
11387;DHT22;5748;53.102;8.456;2023-08-30T02:07:50;18.10;60.30
11387;DHT22;5748;53.102;8.456;2023-08-30T02:10:24;18.10;60.70
11387;DHT22;5748;53.102;8.456;2023-08-30T02:12:55;18.10;60.60
11387;DHT22;5748;53.102;8.456;2023-08-30T02:15:24;18.10;60.60
11387;DHT22;5748;53.102;8.456;2023-08-30T02:17:52;18.20;60.80
11387;DHT22;5748;53.102;8.456;2023-08-30T02:20:19;18.10;60.60
11387;DHT22;5748;53.102;8.456;2023-08-30T02:22:46;18.10;60.60
11387;DHT22;5748;53.102;8.456;2023-08-30T02:25:13;18.10;60.50
11387;DHT22;5748;53.102;8.456;2023-08-30T02:27:40;18.10;60.50
11387;DHT22;5748;53.102;8.456;2023-08-30T02:30:07;18.30;60.80
11387;DHT22;5748;53.102;8.456;2023-08-30T02:35:03;18.10;60.10
11387;DHT22;5748;53.102;8.456;2023-08-30T02:37:30;18.10;60.50
11387;DHT22;5748;53.102;8.456;2023-08-30T02:42:25;18.00;59.90
11387;DHT22;5748;53.102;8.456;2023-08-30T02:44:52;18.00;59.90
11387;DHT22;5748;53.102;8.456;2023-08-30T02:47:19;18.00;59.90
11387;DHT22;5748;53.102;8.456;2023-08-30T02:49:47;18.00;60.50
11387;DHT22;5748;53.102;8.456;2023-08-30T02:52:14;17.90;60.00
11387;DHT22;5748;53.102;8.456;2023-08-30T02:54:42;17.90;60.30
11387;DHT22;5748;53.102;8.456;2023-08-30T02:57:09;17.90;60.40
11387;DHT22;5748;53.102;8.456;2023-08-30T02:59:36;17.80;60.00
11387;DHT22;5748;53.102;8.456;2023-08-30T03:02:03;17.80;60.40
11387;DHT22;5748;53.102;8.456;2023-08-30T03:04:30;17.90;60.60
11387;DHT22;5748;53.102;8.456;2023-08-30T03:09:25;17.80;60.30
11387;DHT22;5748;53.102;8.456;2023-08-30T03:11:52;17.80;60.30
11387;DHT22;5748;53.102;8.456;2023-08-30T03:14:19;19.70;62.70
11387;DHT22;5748;53.102;8.456;2023-08-30T03:16:46;17.80;60.80
11387;DHT22;5748;53.102;8.456;2023-08-30T03:19:13;17.80;60.80
11387;DHT22;5748;53.102;8.456;2023-08-30T03:21:42;17.70;60.70
11387;DHT22;5748;53.102;8.456;2023-08-30T03:24:11;17.70;60.50
11387;DHT22;5748;53.102;8.456;2023-08-30T03:26:39;17.70;60.80
11387;DHT22;5748;53.102;8.456;2023-08-30T03:29:07;17.70;60.60
11387;DHT22;5748;53.102;8.456;2023-08-30T03:31:34;17.70;60.80
11387;DHT22;5748;53.102;8.456;2023-08-30T03:34:01;17.70;60.40
11387;DHT22;5748;53.102;8.456;2023-08-30T03:36:28;17.70;60.50
11387;DHT22;5748;53.102;8.456;2023-08-30T03:38:55;17.60;60.50
11387;DHT22;5748;53.102;8.456;2023-08-30T03:41:23;17.60;60.50
11387;DHT22;5748;53.102;8.456;2023-08-30T03:51:12;17.60;60.80
11387;DHT22;5748;53.102;8.456;2023-08-30T03:53:39;17.60;60.80
11387;DHT22;5748;53.102;8.456;2023-08-30T03:56:06;19.40;63.20
11387;DHT22;5748;53.102;8.456;2023-08-30T03:58:34;17.60;60.80
11387;DHT22;5748;53.102;8.456;2023-08-30T04:01:03;20.90;64.90
11387;DHT22;5748;53.102;8.456;2023-08-30T04:03:32;17.50;61.10
11387;DHT22;5748;53.102;8.456;2023-08-30T04:05:59;17.60;61.20
11387;DHT22;5748;53.102;8.456;2023-08-30T04:10:53;17.60;60.60
11387;DHT22;5748;53.102;8.456;2023-08-30T04:13:20;17.50;60.60
11387;DHT22;5748;53.102;8.456;2023-08-30T04:18:16;17.50;60.90
11387;DHT22;5748;53.102;8.456;2023-08-30T04:20:44;17.50;60.80
11387;DHT22;5748;53.102;8.456;2023-08-30T04:25:39;17.40;60.60
11387;DHT22;5748;53.102;8.456;2023-08-30T04:28:06;17.40;60.60
11387;DHT22;5748;53.102;8.456;2023-08-30T04:30:35;17.40;60.60
11387;DHT22;5748;53.102;8.456;2023-08-30T04:33:05;20.40;64.30
11387;DHT22;5748;53.102;8.456;2023-08-30T04:35:32;17.30;61.00
11387;DHT22;5748;53.102;8.456;2023-08-30T04:38:00;17.30;61.00
11387;DHT22;5748;53.102;8.456;2023-08-30T04:40:27;17.30;61.00
11387;DHT22;5748;53.102;8.456;2023-08-30T04:42:55;17.20;60.90
11387;DHT22;5748;53.102;8.456;2023-08-30T04:45:22;17.20;60.90
11387;DHT22;5748;53.102;8.456;2023-08-30T04:47:49;17.20;61.00
11387;DHT22;5748;53.102;8.456;2023-08-30T04:50:18;17.10;60.90
11387;DHT22;5748;53.102;8.456;2023-08-30T04:52:45;17.10;61.20
11387;DHT22;5748;53.102;8.456;2023-08-30T04:55:12;17.10;61.10
11387;DHT22;5748;53.102;8.456;2023-08-30T04:57:39;17.00;61.20
11387;DHT22;5748;53.102;8.456;2023-08-30T05:00:10;17.00;61.30
11387;DHT22;5748;53.102;8.456;2023-08-30T05:02:38;17.00;61.50
11387;DHT22;5748;53.102;8.456;2023-08-30T05:05:06;16.90;61.40
11387;DHT22;5748;53.102;8.456;2023-08-30T05:07:35;16.90;61.60
11387;DHT22;5748;53.102;8.456;2023-08-30T05:10:02;16.90;61.50
11387;DHT22;5748;53.102;8.456;2023-08-30T05:12:30;16.90;61.50
11387;DHT22;5748;53.102;8.456;2023-08-30T05:14:57;19.70;64.40
11387;DHT22;5748;53.102;8.456;2023-08-30T05:17:24;16.90;61.50
11387;DHT22;5748;53.102;8.456;2023-08-30T05:19:51;16.90;61.50
11387;DHT22;5748;53.102;8.456;2023-08-30T05:22:18;16.90;61.10
11387;DHT22;5748;53.102;8.456;2023-08-30T05:27:13;16.80;61.10
11387;DHT22;5748;53.102;8.456;2023-08-30T05:29:42;16.80;61.10
11387;DHT22;5748;53.102;8.456;2023-08-30T05:32:09;16.80;61.10
11387;DHT22;5748;53.102;8.456;2023-08-30T05:34:36;16.80;61.70
11387;DHT22;5748;53.102;8.456;2023-08-30T05:37:03;16.80;61.70
11387;DHT22;5748;53.102;8.456;2023-08-30T05:39:30;16.80;61.90
11387;DHT22;5748;53.102;8.456;2023-08-30T05:44:26;16.80;61.70
11387;DHT22;5748;53.102;8.456;2023-08-30T05:46:52;16.80;62.10
11387;DHT22;5748;53.102;8.456;2023-08-30T05:49:19;16.80;62.20
11387;DHT22;5748;53.102;8.456;2023-08-30T05:51:46;16.90;62.50
11387;DHT22;5748;53.102;8.456;2023-08-30T05:54:14;16.90;62.60
11387;DHT22;5748;53.102;8.456;2023-08-30T05:56:41;16.90;62.70
11387;DHT22;5748;53.102;8.456;2023-08-30T05:59:09;16.90;62.30
11387;DHT22;5748;53.102;8.456;2023-08-30T06:01:36;16.90;62.90
11387;DHT22;5748;53.102;8.456;2023-08-30T06:04:04;17.00;62.50
11387;DHT22;5748;53.102;8.456;2023-08-30T06:06:31;17.00;63.10
11387;DHT22;5748;53.102;8.456;2023-08-30T06:08:58;17.10;63.20
11387;DHT22;5748;53.102;8.456;2023-08-30T06:11:25;17.10;63.20
11387;DHT22;5748;53.102;8.456;2023-08-30T06:13:52;17.20;63.30
11387;DHT22;5748;53.102;8.456;2023-08-30T06:16:21;17.20;63.40
11387;DHT22;5748;53.102;8.456;2023-08-30T06:18:48;17.20;63.10
11387;DHT22;5748;53.102;8.456;2023-08-30T06:21:15;17.30;63.10
11387;DHT22;5748;53.102;8.456;2023-08-30T06:23:44;17.30;63.20
11387;DHT22;5748;53.102;8.456;2023-08-30T06:26:11;17.40;63.70
11387;DHT22;5748;53.102;8.456;2023-08-30T06:28:38;16.60;63.00
11387;DHT22;5748;53.102;8.456;2023-08-30T06:31:05;17.50;63.90
11387;DHT22;5748;53.102;8.456;2023-08-30T06:33:33;17.60;64.10
11387;DHT22;5748;53.102;8.456;2023-08-30T06:36:01;17.60;64.10
11387;DHT22;5748;53.102;8.456;2023-08-30T06:38:28;17.70;64.20
11387;DHT22;5748;53.102;8.456;2023-08-30T06:40:58;17.70;64.00
11387;DHT22;5748;53.102;8.456;2023-08-30T06:43:25;17.80;64.40
11387;DHT22;5748;53.102;8.456;2023-08-30T06:45:52;17.90;64.20
11387;DHT22;5748;53.102;8.456;2023-08-30T06:50:48;18.00;63.90
11387;DHT22;5748;53.102;8.456;2023-08-30T06:53:15;18.10;64.60
11387;DHT22;5748;53.102;8.456;2023-08-30T06:55:42;18.10;64.40
11387;DHT22;5748;53.102;8.456;2023-08-30T06:58:08;18.30;64.60
11387;DHT22;5748;53.102;8.456;2023-08-30T07:00:35;18.30;64.50
11387;DHT22;5748;53.102;8.456;2023-08-30T07:03:03;18.30;64.50
11387;DHT22;5748;53.102;8.456;2023-08-30T07:05:30;18.40;64.60
11387;DHT22;5748;53.102;8.456;2023-08-30T07:07:58;18.50;64.60
11387;DHT22;5748;53.102;8.456;2023-08-30T07:10:25;18.80;64.90
11387;DHT22;5748;53.102;8.456;2023-08-30T07:12:52;18.60;64.60
11387;DHT22;5748;53.102;8.456;2023-08-30T07:15:19;18.70;64.80
11387;DHT22;5748;53.102;8.456;2023-08-30T07:17:46;18.80;65.00
11387;DHT22;5748;53.102;8.456;2023-08-30T07:20:13;18.90;64.60
11387;DHT22;5748;53.102;8.456;2023-08-30T07:22:40;18.90;65.00
11387;DHT22;5748;53.102;8.456;2023-08-30T07:25:09;19.10;65.10
11387;DHT22;5748;53.102;8.456;2023-08-30T07:27:36;19.20;65.00
11387;DHT22;5748;53.102;8.456;2023-08-30T07:30:04;21.00;66.60
11387;DHT22;5748;53.102;8.456;2023-08-30T07:32:32;19.40;64.90
11387;DHT22;5748;53.102;8.456;2023-08-30T07:35:01;19.40;64.70
11387;DHT22;5748;53.102;8.456;2023-08-30T07:37:28;19.50;64.50
11387;DHT22;5748;53.102;8.456;2023-08-30T07:39:55;19.60;64.50
11387;DHT22;5748;53.102;8.456;2023-08-30T07:42:23;19.50;64.30
11387;DHT22;5748;53.102;8.456;2023-08-30T07:44:50;19.70;64.50
11387;DHT22;5748;53.102;8.456;2023-08-30T07:47:17;20.10;65.00
11387;DHT22;5748;53.102;8.456;2023-08-30T07:49:44;20.10;65.30
11387;DHT22;5748;53.102;8.456;2023-08-30T07:52:11;20.10;65.40
11387;DHT22;5748;53.102;8.456;2023-08-30T07:54:40;20.30;65.50
11387;DHT22;5748;53.102;8.456;2023-08-30T07:57:07;20.40;65.40
11387;DHT22;5748;53.102;8.456;2023-08-30T07:59:37;20.50;66.00
11387;DHT22;5748;53.102;8.456;2023-08-30T08:02:05;20.70;64.40
11387;DHT22;5748;53.102;8.456;2023-08-30T08:04:33;20.90;65.30
11387;DHT22;5748;53.102;8.456;2023-08-30T08:07:00;21.00;65.20
11387;DHT22;5748;53.102;8.456;2023-08-30T08:09:27;21.20;65.40
11387;DHT22;5748;53.102;8.456;2023-08-30T08:11:54;21.30;65.20
11387;DHT22;5748;53.102;8.456;2023-08-30T08:14:22;21.50;65.20
11387;DHT22;5748;53.102;8.456;2023-08-30T08:19:18;22.10;65.60
11387;DHT22;5748;53.102;8.456;2023-08-30T08:21:45;22.40;66.50
11387;DHT22;5748;53.102;8.456;2023-08-30T08:24:12;23.00;65.60
11387;DHT22;5748;53.102;8.456;2023-08-30T08:26:39;23.00;66.70
11387;DHT22;5748;53.102;8.456;2023-08-30T08:29:06;23.40;67.00
11387;DHT22;5748;53.102;8.456;2023-08-30T08:31:33;23.80;67.20
11387;DHT22;5748;53.102;8.456;2023-08-30T08:34:09;24.20;67.40
11387;DHT22;5748;53.102;8.456;2023-08-30T08:36:37;24.70;66.10
11387;DHT22;5748;53.102;8.456;2023-08-30T08:39:05;25.00;67.50
11387;DHT22;5748;53.102;8.456;2023-08-30T08:41:38;25.40;66.30
11387;DHT22;5748;53.102;8.456;2023-08-30T08:44:06;26.30;66.80
11387;DHT22;5748;53.102;8.456;2023-08-30T08:46:35;26.40;67.40
11387;DHT22;5748;53.102;8.456;2023-08-30T08:49:11;26.80;67.20
11387;DHT22;5748;53.102;8.456;2023-08-30T08:51:40;27.40;65.30
11387;DHT22;5748;53.102;8.456;2023-08-30T08:54:08;28.20;64.40
11387;DHT22;5748;53.102;8.456;2023-08-30T08:56:36;28.20;64.80
11387;DHT22;5748;53.102;8.456;2023-08-30T08:59:04;28.60;63.80
11387;DHT22;5748;53.102;8.456;2023-08-30T09:01:33;29.00;63.30
11387;DHT22;5748;53.102;8.456;2023-08-30T09:04:04;29.50;60.20
11387;DHT22;5748;53.102;8.456;2023-08-30T09:09:01;29.70;59.90
11387;DHT22;5748;53.102;8.456;2023-08-30T09:11:30;29.90;60.50
11387;DHT22;5748;53.102;8.456;2023-08-30T09:13:57;30.20;60.00
11387;DHT22;5748;53.102;8.456;2023-08-30T09:16:24;30.40;59.40
11387;DHT22;5748;53.102;8.456;2023-08-30T09:18:58;30.60;58.20
11387;DHT22;5748;53.102;8.456;2023-08-30T09:21:25;30.70;56.30
11387;DHT22;5748;53.102;8.456;2023-08-30T09:24:02;30.80;57.90
11387;DHT22;5748;53.102;8.456;2023-08-30T09:26:30;31.00;55.70
11387;DHT22;5748;53.102;8.456;2023-08-30T09:29:01;31.10;57.30
11387;DHT22;5748;53.102;8.456;2023-08-30T09:31:33;31.10;56.80
11387;DHT22;5748;53.102;8.456;2023-08-30T09:34:01;31.30;56.60
11387;DHT22;5748;53.102;8.456;2023-08-30T09:36:38;31.50;56.90
11387;DHT22;5748;53.102;8.456;2023-08-30T09:39:09;31.70;54.90
11387;DHT22;5748;53.102;8.456;2023-08-30T09:41:40;31.90;55.40
11387;DHT22;5748;53.102;8.456;2023-08-30T09:44:09;32.30;55.30
11387;DHT22;5748;53.102;8.456;2023-08-30T09:46:43;32.30;55.50
11387;DHT22;5748;53.102;8.456;2023-08-30T09:49:10;32.40;53.70
11387;DHT22;5748;53.102;8.456;2023-08-30T09:51:39;32.40;54.30
11387;DHT22;5748;53.102;8.456;2023-08-30T09:54:13;32.50;53.60
11387;DHT22;5748;53.102;8.456;2023-08-30T09:56:42;32.60;52.80
11387;DHT22;5748;53.102;8.456;2023-08-30T09:59:10;32.60;53.80
11387;DHT22;5748;53.102;8.456;2023-08-30T10:01:38;32.60;51.30
11387;DHT22;5748;53.102;8.456;2023-08-30T10:04:07;32.60;52.20
11387;DHT22;5748;53.102;8.456;2023-08-30T10:06:35;32.70;52.40
11387;DHT22;5748;53.102;8.456;2023-08-30T10:09:03;32.70;52.30
11387;DHT22;5748;53.102;8.456;2023-08-30T10:11:34;32.70;51.70
11387;DHT22;5748;53.102;8.456;2023-08-30T10:14:02;32.60;50.50
11387;DHT22;5748;53.102;8.456;2023-08-30T10:16:35;32.50;50.40
11387;DHT22;5748;53.102;8.456;2023-08-30T10:19:09;32.40;50.40
11387;DHT22;5748;53.102;8.456;2023-08-30T10:21:38;32.10;49.40
11387;DHT22;5748;53.102;8.456;2023-08-30T10:24:07;31.90;49.90
11387;DHT22;5748;53.102;8.456;2023-08-30T10:26:38;31.80;50.00
11387;DHT22;5748;53.102;8.456;2023-08-30T10:29:07;31.50;50.10
11387;DHT22;5748;53.102;8.456;2023-08-30T10:31:34;31.40;50.70
11387;DHT22;5748;53.102;8.456;2023-08-30T10:34:11;31.30;50.60
11387;DHT22;5748;53.102;8.456;2023-08-30T10:36:41;31.20;50.80
11387;DHT22;5748;53.102;8.456;2023-08-30T10:39:11;31.30;50.80
11387;DHT22;5748;53.102;8.456;2023-08-30T10:41:54;31.30;50.60
11387;DHT22;5748;53.102;8.456;2023-08-30T10:44:22;31.20;45.60
11387;DHT22;5748;53.102;8.456;2023-08-30T10:46:53;31.20;48.80
11387;DHT22;5748;53.102;8.456;2023-08-30T10:49:21;31.00;48.60
11387;DHT22;5748;53.102;8.456;2023-08-30T10:51:55;30.80;48.00
11387;DHT22;5748;53.102;8.456;2023-08-30T10:54:23;30.50;47.50
11387;DHT22;5748;53.102;8.456;2023-08-30T10:56:57;30.20;48.60
11387;DHT22;5748;53.102;8.456;2023-08-30T10:59:26;29.90;47.70
11387;DHT22;5748;53.102;8.456;2023-08-30T11:01:55;29.60;48.40
11387;DHT22;5748;53.102;8.456;2023-08-30T11:04:22;29.00;47.40
11387;DHT22;5748;53.102;8.456;2023-08-30T11:06:50;29.00;48.40
11387;DHT22;5748;53.102;8.456;2023-08-30T11:09:20;28.70;48.10
11387;DHT22;5748;53.102;8.456;2023-08-30T11:11:49;28.40;47.90
11387;DHT22;5748;53.102;8.456;2023-08-30T11:14:18;27.90;47.00
11387;DHT22;5748;53.102;8.456;2023-08-30T11:16:45;27.80;47.90
11387;DHT22;5748;53.102;8.456;2023-08-30T11:19:13;27.50;48.10
11387;DHT22;5748;53.102;8.456;2023-08-30T11:21:43;27.30;48.30
11387;DHT22;5748;53.102;8.456;2023-08-30T11:24:10;26.80;47.80
11387;DHT22;5748;53.102;8.456;2023-08-30T11:26:37;26.70;48.30
11387;DHT22;5748;53.102;8.456;2023-08-30T11:29:05;26.50;48.70
11387;DHT22;5748;53.102;8.456;2023-08-30T11:31:34;26.30;48.90
11387;DHT22;5748;53.102;8.456;2023-08-30T11:34:01;26.10;48.90
11387;DHT22;5748;53.102;8.456;2023-08-30T11:36:29;25.90;49.30
11387;DHT22;5748;53.102;8.456;2023-08-30T11:38:57;25.80;49.70
11387;DHT22;5748;53.102;8.456;2023-08-30T11:41:25;25.70;49.80
11387;DHT22;5748;53.102;8.456;2023-08-30T11:43:52;25.60;49.90
11387;DHT22;5748;53.102;8.456;2023-08-30T11:46:21;25.50;50.00
11387;DHT22;5748;53.102;8.456;2023-08-30T11:48:50;25.50;50.30
11387;DHT22;5748;53.102;8.456;2023-08-30T11:51:18;25.50;50.30
11387;DHT22;5748;53.102;8.456;2023-08-30T11:53:46;25.30;50.30
11387;DHT22;5748;53.102;8.456;2023-08-30T11:56:15;25.30;50.50
11387;DHT22;5748;53.102;8.456;2023-08-30T11:58:43;25.30;50.50
11387;DHT22;5748;53.102;8.456;2023-08-30T12:01:10;25.30;50.50
11387;DHT22;5748;53.102;8.456;2023-08-30T12:03:38;25.10;50.60
11387;DHT22;5748;53.102;8.456;2023-08-30T12:06:10;25.20;50.70
11387;DHT22;5748;53.102;8.456;2023-08-30T12:08:37;25.40;50.80
11387;DHT22;5748;53.102;8.456;2023-08-30T12:11:04;25.10;50.70
11387;DHT22;5748;53.102;8.456;2023-08-30T12:13:33;25.00;50.80
11387;DHT22;5748;53.102;8.456;2023-08-30T12:16:01;24.90;50.90
11387;DHT22;5748;53.102;8.456;2023-08-30T12:18:31;24.70;50.90
11387;DHT22;5748;53.102;8.456;2023-08-30T12:21:00;24.70;50.90
11387;DHT22;5748;53.102;8.456;2023-08-30T12:23:31;24.70;50.70
11387;DHT22;5748;53.102;8.456;2023-08-30T12:26:00;24.60;51.20
11387;DHT22;5748;53.102;8.456;2023-08-30T12:28:29;24.60;51.20
11387;DHT22;5748;53.102;8.456;2023-08-30T12:30:58;24.60;51.50
11387;DHT22;5748;53.102;8.456;2023-08-30T12:33:25;24.60;52.20
11387;DHT22;5748;53.102;8.456;2023-08-30T12:35:52;24.50;51.40
11387;DHT22;5748;53.102;8.456;2023-08-30T12:38:19;24.50;51.60
11387;DHT22;5748;53.102;8.456;2023-08-30T12:40:48;24.50;51.50
11387;DHT22;5748;53.102;8.456;2023-08-30T12:43:17;25.60;52.40
11387;DHT22;5748;53.102;8.456;2023-08-30T12:45:45;24.40;51.60
11387;DHT22;5748;53.102;8.456;2023-08-30T12:48:14;24.30;51.50
11387;DHT22;5748;53.102;8.456;2023-08-30T12:50:43;24.20;51.40
11387;DHT22;5748;53.102;8.456;2023-08-30T12:53:10;22.20;49.80
11387;DHT22;5748;53.102;8.456;2023-08-30T12:55:37;24.10;51.50
11387;DHT22;5748;53.102;8.456;2023-08-30T12:58:07;24.10;51.90
11387;DHT22;5748;53.102;8.456;2023-08-30T13:00:35;23.10;51.00
11387;DHT22;5748;53.102;8.456;2023-08-30T13:03:02;24.00;51.70
11387;DHT22;5748;53.102;8.456;2023-08-30T13:05:29;23.90;51.80
11387;DHT22;5748;53.102;8.456;2023-08-30T13:07:57;23.80;52.00
11387;DHT22;5748;53.102;8.456;2023-08-30T13:10:24;23.80;52.10
11387;DHT22;5748;53.102;8.456;2023-08-30T13:12:51;23.70;52.40
11387;DHT22;5748;53.102;8.456;2023-08-30T13:15:19;23.70;52.40
11387;DHT22;5748;53.102;8.456;2023-08-30T13:17:46;23.60;52.70
11387;DHT22;5748;53.102;8.456;2023-08-30T13:20:13;23.90;53.10
11387;DHT22;5748;53.102;8.456;2023-08-30T13:22:40;23.40;52.60
11387;DHT22;5748;53.102;8.456;2023-08-30T13:25:07;23.30;53.10
11387;DHT22;5748;53.102;8.456;2023-08-30T13:27:35;21.80;52.10
11387;DHT22;5748;53.102;8.456;2023-08-30T13:30:02;23.20;53.30
11387;DHT22;5748;53.102;8.456;2023-08-30T13:32:31;23.20;53.50
11387;DHT22;5748;53.102;8.456;2023-08-30T13:34:58;23.20;53.60
11387;DHT22;5748;53.102;8.456;2023-08-30T13:37:25;23.10;53.60
11387;DHT22;5748;53.102;8.456;2023-08-30T13:39:53;23.10;53.70
11387;DHT22;5748;53.102;8.456;2023-08-30T13:42:20;23.10;53.80
11387;DHT22;5748;53.102;8.456;2023-08-30T13:44:50;23.10;54.50
11387;DHT22;5748;53.102;8.456;2023-08-30T13:47:17;23.20;54.20
11387;DHT22;5748;53.102;8.456;2023-08-30T13:52:14;23.00;53.60
11387;DHT22;5748;53.102;8.456;2023-08-30T13:54:41;23.00;54.40
11387;DHT22;5748;53.102;8.456;2023-08-30T13:57:08;23.00;54.10
11387;DHT22;5748;53.102;8.456;2023-08-30T13:59:35;22.90;54.00
11387;DHT22;5748;53.102;8.456;2023-08-30T14:02:02;22.80;54.10
11387;DHT22;5748;53.102;8.456;2023-08-30T14:04:30;21.00;52.70
11387;DHT22;5748;53.102;8.456;2023-08-30T14:07:00;22.70;54.00
11387;DHT22;5748;53.102;8.456;2023-08-30T14:09:29;22.60;54.30
11387;DHT22;5748;53.102;8.456;2023-08-30T14:11:56;22.60;54.30
11387;DHT22;5748;53.102;8.456;2023-08-30T14:14:23;22.50;54.80
11387;DHT22;5748;53.102;8.456;2023-08-30T14:16:49;22.50;55.20
11387;DHT22;5748;53.102;8.456;2023-08-30T14:19:16;22.40;54.60
11387;DHT22;5748;53.102;8.456;2023-08-30T14:21:43;22.20;54.50
11387;DHT22;5748;53.102;8.456;2023-08-30T14:24:12;22.30;54.50
11387;DHT22;5748;53.102;8.456;2023-08-30T14:26:39;22.30;55.10
11387;DHT22;5748;53.102;8.456;2023-08-30T14:29:06;22.20;55.00
11387;DHT22;5748;53.102;8.456;2023-08-30T14:31:33;22.10;54.90
11387;DHT22;5748;53.102;8.456;2023-08-30T14:34:00;22.10;55.10
11387;DHT22;5748;53.102;8.456;2023-08-30T14:36:27;21.90;55.20
11387;DHT22;5748;53.102;8.456;2023-08-30T14:38:54;21.80;55.30
11387;DHT22;5748;53.102;8.456;2023-08-30T14:41:22;21.80;55.40
11387;DHT22;5748;53.102;8.456;2023-08-30T14:43:49;21.50;55.40
11387;DHT22;5748;53.102;8.456;2023-08-30T14:46:16;22.20;56.40
11387;DHT22;5748;53.102;8.456;2023-08-30T14:48:45;21.40;55.70
11387;DHT22;5748;53.102;8.456;2023-08-30T14:51:12;21.50;56.20
11387;DHT22;5748;53.102;8.456;2023-08-30T14:53:39;21.30;55.70
11387;DHT22;5748;53.102;8.456;2023-08-30T14:56:06;21.30;56.40
11387;DHT22;5748;53.102;8.456;2023-08-30T14:58:34;21.20;56.70
11387;DHT22;5748;53.102;8.456;2023-08-30T15:01:01;21.20;57.40
11387;DHT22;5748;53.102;8.456;2023-08-30T15:03:28;21.20;57.10
11387;DHT22;5748;53.102;8.456;2023-08-30T15:05:56;21.20;56.90
11387;DHT22;5748;53.102;8.456;2023-08-30T15:08:24;21.20;57.80
11387;DHT22;5748;53.102;8.456;2023-08-30T15:10:51;21.20;57.40
11387;DHT22;5748;53.102;8.456;2023-08-30T15:13:18;21.20;57.60
11387;DHT22;5748;53.102;8.456;2023-08-30T15:15:47;21.30;58.10
11387;DHT22;5748;53.102;8.456;2023-08-30T15:18:14;21.70;58.40
11387;DHT22;5748;53.102;8.456;2023-08-30T15:20:41;21.20;57.90
11387;DHT22;5748;53.102;8.456;2023-08-30T15:23:12;21.70;58.60
11387;DHT22;5748;53.102;8.456;2023-08-30T15:25:43;21.20;57.90
11387;DHT22;5748;53.102;8.456;2023-08-30T15:28:11;21.20;58.20
11387;DHT22;5748;53.102;8.456;2023-08-30T15:30:41;21.20;57.60
11387;DHT22;5748;53.102;8.456;2023-08-30T15:33:10;21.20;57.30
11387;DHT22;5748;53.102;8.456;2023-08-30T15:35:38;21.40;57.60
11387;DHT22;5748;53.102;8.456;2023-08-30T15:38:06;21.20;57.80
11387;DHT22;5748;53.102;8.456;2023-08-30T15:40:33;21.20;57.90
11387;DHT22;5748;53.102;8.456;2023-08-30T15:43:00;21.20;58.10
11387;DHT22;5748;53.102;8.456;2023-08-30T15:45:28;21.20;58.00
11387;DHT22;5748;53.102;8.456;2023-08-30T15:47:55;21.20;58.30
11387;DHT22;5748;53.102;8.456;2023-08-30T15:50:24;21.20;58.90
11387;DHT22;5748;53.102;8.456;2023-08-30T15:52:51;21.30;58.60
11387;DHT22;5748;53.102;8.456;2023-08-30T15:55:18;21.30;58.70
11387;DHT22;5748;53.102;8.456;2023-08-30T15:57:45;21.40;59.10
11387;DHT22;5748;53.102;8.456;2023-08-30T16:00:13;21.50;58.60
11387;DHT22;5748;53.102;8.456;2023-08-30T16:02:41;21.50;58.60
11387;DHT22;5748;53.102;8.456;2023-08-30T16:05:08;21.50;58.40
11387;DHT22;5748;53.102;8.456;2023-08-30T16:07:37;21.60;58.60
11387;DHT22;5748;53.102;8.456;2023-08-30T16:10:06;21.60;58.40
11387;DHT22;5748;53.102;8.456;2023-08-30T16:12:33;21.60;58.20
11387;DHT22;5748;53.102;8.456;2023-08-30T16:15:01;22.00;58.90
11387;DHT22;5748;53.102;8.456;2023-08-30T16:17:28;21.50;58.20
11387;DHT22;5748;53.102;8.456;2023-08-30T16:19:55;21.50;58.10
11387;DHT22;5748;53.102;8.456;2023-08-30T16:22:23;21.50;58.10
11387;DHT22;5748;53.102;8.456;2023-08-30T16:24:51;21.30;58.20
11387;DHT22;5748;53.102;8.456;2023-08-30T16:27:18;21.40;58.30
11387;DHT22;5748;53.102;8.456;2023-08-30T16:29:45;21.30;58.00
11387;DHT22;5748;53.102;8.456;2023-08-30T16:32:12;21.30;58.40